sensor_id;sensor_type;location;lat;lon;timestamp;P1;durP1;ratioP1;P2;durP2;ratioP2
85892;SDS011;76433;42.122;23.040;2024-02-26T00:03:48;17.35;;;10.25;;
85892;SDS011;76433;42.122;23.040;2024-02-26T00:09:35;18.08;;;9.48;;
85892;SDS011;76433;42.122;23.040;2024-02-26T00:12:02;18.85;;;10.40;;
85892;SDS011;76433;42.122;23.040;2024-02-26T00:14:29;19.25;;;10.40;;
85892;SDS011;76433;42.122;23.040;2024-02-26T00:16:54;19.77;;;10.32;;
85892;SDS011;76433;42.122;23.040;2024-02-26T00:19:20;23.83;;;11.23;;
85892;SDS011;76433;42.122;23.040;2024-02-26T00:21:45;20.00;;;10.47;;
85892;SDS011;76433;42.122;23.040;2024-02-26T00:24:10;17.45;;;9.63;;
85892;SDS011;76433;42.122;23.040;2024-02-26T00:26:36;21.70;;;10.43;;
85892;SDS011;76433;42.122;23.040;2024-02-26T00:35:58;18.42;;;10.65;;
85892;SDS011;76433;42.122;23.040;2024-02-26T00:38:23;21.65;;;10.10;;
85892;SDS011;76433;42.122;23.040;2024-02-26T00:40:49;23.97;;;11.20;;
85892;SDS011;76433;42.122;23.040;2024-02-26T00:46:35;18.88;;;10.07;;
85892;SDS011;76433;42.122;23.040;2024-02-26T00:49:01;19.63;;;10.90;;
85892;SDS011;76433;42.122;23.040;2024-02-26T00:51:26;26.98;;;12.23;;
85892;SDS011;76433;42.122;23.040;2024-02-26T01:03:01;24.25;;;11.23;;
85892;SDS011;76433;42.122;23.040;2024-02-26T01:05:26;20.57;;;12.57;;
85892;SDS011;76433;42.122;23.040;2024-02-26T01:07:51;19.30;;;11.60;;
85892;SDS011;76433;42.122;23.040;2024-02-26T01:10:17;18.23;;;11.17;;
85892;SDS011;76433;42.122;23.040;2024-02-26T01:12:42;19.30;;;12.07;;
85892;SDS011;76433;42.122;23.040;2024-02-26T01:18:29;24.13;;;12.10;;
85892;SDS011;76433;42.122;23.040;2024-02-26T01:24:16;18.27;;;10.52;;
85892;SDS011;76433;42.122;23.040;2024-02-26T01:26:42;20.50;;;10.82;;
85892;SDS011;76433;42.122;23.040;2024-02-26T01:32:30;20.15;;;11.65;;
85892;SDS011;76433;42.122;23.040;2024-02-26T01:34:55;22.23;;;11.35;;
85892;SDS011;76433;42.122;23.040;2024-02-26T01:40:43;21.20;;;11.70;;
85892;SDS011;76433;42.122;23.040;2024-02-26T01:43:08;20.50;;;12.13;;
85892;SDS011;76433;42.122;23.040;2024-02-26T01:45:33;23.40;;;12.20;;
85892;SDS011;76433;42.122;23.040;2024-02-26T01:47:59;26.23;;;13.93;;
85892;SDS011;76433;42.122;23.040;2024-02-26T02:00:29;20.30;;;11.48;;
85892;SDS011;76433;42.122;23.040;2024-02-26T02:12:05;19.60;;;11.00;;
85892;SDS011;76433;42.122;23.040;2024-02-26T02:17:12;19.25;;;10.95;;
85892;SDS011;76433;42.122;23.040;2024-02-26T02:22:59;19.42;;;10.95;;
85892;SDS011;76433;42.122;23.040;2024-02-26T02:31:32;20.27;;;11.32;;
85892;SDS011;76433;42.122;23.040;2024-02-26T02:50:14;17.52;;;10.35;;
85892;SDS011;76433;42.122;23.040;2024-02-26T02:52:40;16.23;;;8.80;;
85892;SDS011;76433;42.122;23.040;2024-02-26T03:01:09;18.65;;;11.00;;
85892;SDS011;76433;42.122;23.040;2024-02-26T03:03:35;22.30;;;11.85;;
85892;SDS011;76433;42.122;23.040;2024-02-26T03:06:01;19.85;;;10.98;;
85892;SDS011;76433;42.122;23.040;2024-02-26T03:08:27;22.58;;;11.63;;
85892;SDS011;76433;42.122;23.040;2024-02-26T03:10:53;20.85;;;12.25;;
85892;SDS011;76433;42.122;23.040;2024-02-26T03:13:18;21.23;;;12.70;;
85892;SDS011;76433;42.122;23.040;2024-02-26T03:15:47;21.57;;;12.00;;
85892;SDS011;76433;42.122;23.040;2024-02-26T03:18:12;19.48;;;11.93;;
85892;SDS011;76433;42.122;23.040;2024-02-26T03:26:52;23.95;;;12.50;;
85892;SDS011;76433;42.122;23.040;2024-02-26T03:29:18;26.70;;;12.95;;
85892;SDS011;76433;42.122;23.040;2024-02-26T03:31:43;22.33;;;12.30;;
85892;SDS011;76433;42.122;23.040;2024-02-26T03:37:40;19.92;;;11.23;;
85892;SDS011;76433;42.122;23.040;2024-02-26T03:40:05;24.17;;;12.88;;
85892;SDS011;76433;42.122;23.040;2024-02-26T03:42:31;19.70;;;10.60;;
85892;SDS011;76433;42.122;23.040;2024-02-26T03:44:56;22.03;;;11.37;;
85892;SDS011;76433;42.122;23.040;2024-02-26T03:50:43;20.35;;;11.75;;
85892;SDS011;76433;42.122;23.040;2024-02-26T03:53:09;20.60;;;11.80;;
85892;SDS011;76433;42.122;23.040;2024-02-26T03:58:59;23.95;;;12.75;;
85892;SDS011;76433;42.122;23.040;2024-02-26T04:01:26;21.55;;;12.23;;
85892;SDS011;76433;42.122;23.040;2024-02-26T04:07:13;20.70;;;10.20;;
85892;SDS011;76433;42.122;23.040;2024-02-26T04:16:05;19.27;;;11.55;;
85892;SDS011;76433;42.122;23.040;2024-02-26T04:21:32;20.45;;;10.45;;
85892;SDS011;76433;42.122;23.040;2024-02-26T04:24:15;17.85;;;10.57;;
85892;SDS011;76433;42.122;23.040;2024-02-26T04:26:41;22.52;;;10.95;;
85892;SDS011;76433;42.122;23.040;2024-02-26T04:29:06;18.67;;;11.23;;
85892;SDS011;76433;42.122;23.040;2024-02-26T04:31:31;17.63;;;10.03;;
85892;SDS011;76433;42.122;23.040;2024-02-26T04:33:58;19.17;;;10.13;;
85892;SDS011;76433;42.122;23.040;2024-02-26T04:36:23;18.65;;;11.07;;
85892;SDS011;76433;42.122;23.040;2024-02-26T04:38:50;17.45;;;10.05;;
85892;SDS011;76433;42.122;23.040;2024-02-26T04:41:16;18.13;;;10.35;;
85892;SDS011;76433;42.122;23.040;2024-02-26T04:49:28;17.80;;;9.67;;
85892;SDS011;76433;42.122;23.040;2024-02-26T04:51:54;16.33;;;9.93;;
85892;SDS011;76433;42.122;23.040;2024-02-26T05:01:01;17.75;;;9.98;;
85892;SDS011;76433;42.122;23.040;2024-02-26T05:03:28;22.42;;;10.98;;
85892;SDS011;76433;42.122;23.040;2024-02-26T05:12:32;13.82;;;8.93;;
85892;SDS011;76433;42.122;23.040;2024-02-26T05:15:00;21.33;;;10.63;;
85892;SDS011;76433;42.122;23.040;2024-02-26T05:17:25;18.98;;;10.90;;
85892;SDS011;76433;42.122;23.040;2024-02-26T05:19:50;15.52;;;8.55;;
85892;SDS011;76433;42.122;23.040;2024-02-26T05:22:16;17.13;;;9.47;;
85892;SDS011;76433;42.122;23.040;2024-02-26T05:24:59;21.90;;;12.82;;
85892;SDS011;76433;42.122;23.040;2024-02-26T05:30:36;17.83;;;10.85;;
85892;SDS011;76433;42.122;23.040;2024-02-26T05:33:04;19.25;;;10.70;;
85892;SDS011;76433;42.122;23.040;2024-02-26T05:35:30;19.15;;;11.07;;
85892;SDS011;76433;42.122;23.040;2024-02-26T05:37:55;16.00;;;10.07;;
85892;SDS011;76433;42.122;23.040;2024-02-26T05:40:20;16.67;;;9.50;;
85892;SDS011;76433;42.122;23.040;2024-02-26T05:42:46;17.20;;;10.37;;
85892;SDS011;76433;42.122;23.040;2024-02-26T05:45:11;15.80;;;10.35;;
85892;SDS011;76433;42.122;23.040;2024-02-26T05:47:37;16.75;;;10.05;;
85892;SDS011;76433;42.122;23.040;2024-02-26T05:50:07;21.25;;;11.18;;
85892;SDS011;76433;42.122;23.040;2024-02-26T05:52:35;16.80;;;11.10;;
85892;SDS011;76433;42.122;23.040;2024-02-26T05:55:01;18.08;;;10.70;;
85892;SDS011;76433;42.122;23.040;2024-02-26T05:57:27;22.35;;;10.20;;
85892;SDS011;76433;42.122;23.040;2024-02-26T05:59:52;19.17;;;10.33;;
85892;SDS011;76433;42.122;23.040;2024-02-26T06:02:18;22.13;;;10.80;;
85892;SDS011;76433;42.122;23.040;2024-02-26T06:04:43;20.30;;;11.30;;
85892;SDS011;76433;42.122;23.040;2024-02-26T06:07:08;17.73;;;11.27;;
85892;SDS011;76433;42.122;23.040;2024-02-26T06:09:34;16.37;;;10.40;;
85892;SDS011;76433;42.122;23.040;2024-02-26T06:11:59;20.70;;;11.90;;
85892;SDS011;76433;42.122;23.040;2024-02-26T06:14:24;19.10;;;11.73;;
85892;SDS011;76433;42.122;23.040;2024-02-26T06:16:50;21.27;;;12.50;;
85892;SDS011;76433;42.122;23.040;2024-02-26T06:19:16;16.73;;;11.32;;
85892;SDS011;76433;42.122;23.040;2024-02-26T06:21:42;21.83;;;11.30;;
85892;SDS011;76433;42.122;23.040;2024-02-26T06:24:08;22.60;;;12.18;;
85892;SDS011;76433;42.122;23.040;2024-02-26T06:26:34;23.38;;;12.27;;
85892;SDS011;76433;42.122;23.040;2024-02-26T06:29:00;19.38;;;11.02;;
85892;SDS011;76433;42.122;23.040;2024-02-26T06:31:26;20.88;;;10.73;;
85892;SDS011;76433;42.122;23.040;2024-02-26T06:33:53;16.77;;;10.90;;
85892;SDS011;76433;42.122;23.040;2024-02-26T06:36:19;16.15;;;10.02;;
85892;SDS011;76433;42.122;23.040;2024-02-26T06:38:46;18.70;;;11.25;;
85892;SDS011;76433;42.122;23.040;2024-02-26T06:41:12;22.73;;;12.65;;
85892;SDS011;76433;42.122;23.040;2024-02-26T06:43:38;21.85;;;13.30;;
85892;SDS011;76433;42.122;23.040;2024-02-26T06:46:04;24.52;;;12.48;;
85892;SDS011;76433;42.122;23.040;2024-02-26T06:48:31;23.05;;;13.43;;
85892;SDS011;76433;42.122;23.040;2024-02-26T06:50:58;22.45;;;13.02;;
85892;SDS011;76433;42.122;23.040;2024-02-26T06:53:24;19.42;;;12.30;;
85892;SDS011;76433;42.122;23.040;2024-02-26T06:55:51;22.98;;;12.93;;
85892;SDS011;76433;42.122;23.040;2024-02-26T06:58:17;19.92;;;11.60;;
85892;SDS011;76433;42.122;23.040;2024-02-26T07:00:45;19.13;;;11.95;;
85892;SDS011;76433;42.122;23.040;2024-02-26T07:03:12;19.85;;;11.68;;
85892;SDS011;76433;42.122;23.040;2024-02-26T07:05:39;17.45;;;11.48;;
85892;SDS011;76433;42.122;23.040;2024-02-26T07:08:06;23.10;;;11.95;;
85892;SDS011;76433;42.122;23.040;2024-02-26T07:10:35;22.48;;;11.82;;
85892;SDS011;76433;42.122;23.040;2024-02-26T07:13:02;19.30;;;12.52;;
85892;SDS011;76433;42.122;23.040;2024-02-26T07:15:29;22.23;;;11.38;;
85892;SDS011;76433;42.122;23.040;2024-02-26T07:17:54;24.25;;;11.85;;
85892;SDS011;76433;42.122;23.040;2024-02-26T07:20:20;29.10;;;13.00;;
85892;SDS011;76433;42.122;23.040;2024-02-26T07:22:45;25.45;;;12.50;;
85892;SDS011;76433;42.122;23.040;2024-02-26T07:25:11;25.90;;;11.65;;
85892;SDS011;76433;42.122;23.040;2024-02-26T07:27:38;22.17;;;11.43;;
85892;SDS011;76433;42.122;23.040;2024-02-26T07:30:05;20.58;;;11.68;;
85892;SDS011;76433;42.122;23.040;2024-02-26T07:32:33;20.55;;;12.48;;
85892;SDS011;76433;42.122;23.040;2024-02-26T07:34:58;23.70;;;12.27;;
85892;SDS011;76433;42.122;23.040;2024-02-26T07:37:24;22.90;;;11.47;;
85892;SDS011;76433;42.122;23.040;2024-02-26T07:39:53;20.38;;;10.52;;
85892;SDS011;76433;42.122;23.040;2024-02-26T07:44:44;21.57;;;11.80;;
85892;SDS011;76433;42.122;23.040;2024-02-26T07:47:10;24.10;;;12.03;;
85892;SDS011;76433;42.122;23.040;2024-02-26T07:49:35;21.50;;;12.27;;
85892;SDS011;76433;42.122;23.040;2024-02-26T07:52:00;27.27;;;13.50;;
85892;SDS011;76433;42.122;23.040;2024-02-26T07:54:26;21.10;;;10.87;;
85892;SDS011;76433;42.122;23.040;2024-02-26T07:56:51;26.80;;;11.00;;
85892;SDS011;76433;42.122;23.040;2024-02-26T07:59:16;19.08;;;10.27;;
85892;SDS011;76433;42.122;23.040;2024-02-26T08:01:42;15.03;;;9.43;;
85892;SDS011;76433;42.122;23.040;2024-02-26T08:04:08;21.35;;;10.18;;
85892;SDS011;76433;42.122;23.040;2024-02-26T08:06:33;20.65;;;10.60;;
85892;SDS011;76433;42.122;23.040;2024-02-26T08:08:58;20.23;;;10.77;;
85892;SDS011;76433;42.122;23.040;2024-02-26T08:11:24;17.57;;;10.17;;
85892;SDS011;76433;42.122;23.040;2024-02-26T08:13:49;16.60;;;9.70;;
85892;SDS011;76433;42.122;23.040;2024-02-26T08:16:14;16.93;;;8.93;;
85892;SDS011;76433;42.122;23.040;2024-02-26T08:18:55;15.63;;;7.90;;
85892;SDS011;76433;42.122;23.040;2024-02-26T08:21:22;13.45;;;7.10;;
85892;SDS011;76433;42.122;23.040;2024-02-26T08:23:47;13.07;;;7.07;;
85892;SDS011;76433;42.122;23.040;2024-02-26T08:26:13;15.77;;;7.80;;
85892;SDS011;76433;42.122;23.040;2024-02-26T08:28:38;10.45;;;5.95;;
85892;SDS011;76433;42.122;23.040;2024-02-26T08:31:03;12.50;;;5.97;;
85892;SDS011;76433;42.122;23.040;2024-02-26T08:33:29;12.20;;;6.18;;
85892;SDS011;76433;42.122;23.040;2024-02-26T08:35:55;19.38;;;9.45;;
85892;SDS011;76433;42.122;23.040;2024-02-26T08:38:21;28.38;;;10.80;;
85892;SDS011;76433;42.122;23.040;2024-02-26T08:40:47;21.13;;;10.88;;
85892;SDS011;76433;42.122;23.040;2024-02-26T08:43:12;12.20;;;7.47;;
85892;SDS011;76433;42.122;23.040;2024-02-26T08:45:37;9.27;;;6.18;;
85892;SDS011;76433;42.122;23.040;2024-02-26T08:48:03;14.50;;;8.10;;
85892;SDS011;76433;42.122;23.040;2024-02-26T08:50:28;11.10;;;6.82;;
85892;SDS011;76433;42.122;23.040;2024-02-26T08:52:54;15.80;;;6.50;;
85892;SDS011;76433;42.122;23.040;2024-02-26T08:55:19;9.37;;;5.63;;
85892;SDS011;76433;42.122;23.040;2024-02-26T08:57:44;9.60;;;6.17;;
85892;SDS011;76433;42.122;23.040;2024-02-26T09:00:10;10.90;;;6.00;;
85892;SDS011;76433;42.122;23.040;2024-02-26T09:02:36;8.57;;;5.68;;
85892;SDS011;76433;42.122;23.040;2024-02-26T09:05:04;11.77;;;6.78;;
85892;SDS011;76433;42.122;23.040;2024-02-26T09:07:30;9.23;;;6.15;;
85892;SDS011;76433;42.122;23.040;2024-02-26T09:09:56;10.35;;;5.70;;
85892;SDS011;76433;42.122;23.040;2024-02-26T09:12:21;7.93;;;5.13;;
85892;SDS011;76433;42.122;23.040;2024-02-26T09:14:47;7.70;;;4.55;;
85892;SDS011;76433;42.122;23.040;2024-02-26T09:17:12;8.97;;;5.27;;
85892;SDS011;76433;42.122;23.040;2024-02-26T09:19:37;6.93;;;4.90;;
85892;SDS011;76433;42.122;23.040;2024-02-26T09:22:03;8.82;;;5.13;;
85892;SDS011;76433;42.122;23.040;2024-02-26T09:24:29;11.57;;;6.30;;
85892;SDS011;76433;42.122;23.040;2024-02-26T09:26:54;8.83;;;5.63;;
85892;SDS011;76433;42.122;23.040;2024-02-26T09:29:20;8.25;;;5.78;;
85892;SDS011;76433;42.122;23.040;2024-02-26T09:31:45;10.07;;;5.68;;
85892;SDS011;76433;42.122;23.040;2024-02-26T09:34:12;12.20;;;5.22;;
85892;SDS011;76433;42.122;23.040;2024-02-26T09:36:38;7.55;;;4.85;;
85892;SDS011;76433;42.122;23.040;2024-02-26T09:39:04;9.75;;;5.43;;
85892;SDS011;76433;42.122;23.040;2024-02-26T09:41:30;13.32;;;5.75;;
85892;SDS011;76433;42.122;23.040;2024-02-26T09:43:56;10.82;;;5.80;;
85892;SDS011;76433;42.122;23.040;2024-02-26T09:46:23;10.10;;;5.50;;
85892;SDS011;76433;42.122;23.040;2024-02-26T09:48:50;14.80;;;7.07;;
85892;SDS011;76433;42.122;23.040;2024-02-26T09:51:15;11.77;;;6.30;;
85892;SDS011;76433;42.122;23.040;2024-02-26T09:53:43;13.93;;;6.30;;
85892;SDS011;76433;42.122;23.040;2024-02-26T09:56:10;7.53;;;5.05;;
85892;SDS011;76433;42.122;23.040;2024-02-26T09:58:36;7.90;;;4.35;;
85892;SDS011;76433;42.122;23.040;2024-02-26T10:01:04;11.52;;;4.30;;
85892;SDS011;76433;42.122;23.040;2024-02-26T10:03:40;6.13;;;4.80;;
85892;SDS011;76433;42.122;23.040;2024-02-26T10:06:10;8.60;;;5.05;;
85892;SDS011;76433;42.122;23.040;2024-02-26T10:08:36;6.75;;;4.43;;
85892;SDS011;76433;42.122;23.040;2024-02-26T10:11:03;10.98;;;4.88;;
85892;SDS011;76433;42.122;23.040;2024-02-26T10:13:32;7.55;;;4.38;;
85892;SDS011;76433;42.122;23.040;2024-02-26T10:15:57;11.55;;;4.80;;
85892;SDS011;76433;42.122;23.040;2024-02-26T10:18:23;7.28;;;4.70;;
85892;SDS011;76433;42.122;23.040;2024-02-26T10:20:59;10.35;;;5.75;;
85892;SDS011;76433;42.122;23.040;2024-02-26T10:23:26;8.70;;;5.03;;
85892;SDS011;76433;42.122;23.040;2024-02-26T10:25:55;9.15;;;4.93;;
85892;SDS011;76433;42.122;23.040;2024-02-26T10:28:20;7.90;;;4.45;;
85892;SDS011;76433;42.122;23.040;2024-02-26T10:30:46;11.57;;;5.40;;
85892;SDS011;76433;42.122;23.040;2024-02-26T10:33:12;11.35;;;5.85;;
85892;SDS011;76433;42.122;23.040;2024-02-26T10:35:39;10.40;;;6.22;;
85892;SDS011;76433;42.122;23.040;2024-02-26T10:38:06;6.75;;;4.47;;
85892;SDS011;76433;42.122;23.040;2024-02-26T10:40:32;5.65;;;4.72;;
85892;SDS011;76433;42.122;23.040;2024-02-26T10:42:57;9.63;;;4.68;;
85892;SDS011;76433;42.122;23.040;2024-02-26T10:45:23;10.30;;;7.05;;
85892;SDS011;76433;42.122;23.040;2024-02-26T10:47:49;14.55;;;6.20;;
85892;SDS011;76433;42.122;23.040;2024-02-26T10:50:15;9.18;;;5.03;;
85892;SDS011;76433;42.122;23.040;2024-02-26T10:52:43;13.88;;;7.72;;
85892;SDS011;76433;42.122;23.040;2024-02-26T10:55:16;8.05;;;4.90;;
85892;SDS011;76433;42.122;23.040;2024-02-26T10:57:45;9.20;;;5.65;;
85892;SDS011;76433;42.122;23.040;2024-02-26T11:00:13;9.30;;;5.15;;
85892;SDS011;76433;42.122;23.040;2024-02-26T11:02:40;8.00;;;5.47;;
85892;SDS011;76433;42.122;23.040;2024-02-26T11:05:07;9.10;;;6.00;;
85892;SDS011;76433;42.122;23.040;2024-02-26T11:07:35;8.27;;;5.20;;
85892;SDS011;76433;42.122;23.040;2024-02-26T11:10:02;8.80;;;5.40;;
85892;SDS011;76433;42.122;23.040;2024-02-26T11:12:29;7.38;;;4.47;;
85892;SDS011;76433;42.122;23.040;2024-02-26T11:14:56;9.50;;;5.22;;
85892;SDS011;76433;42.122;23.040;2024-02-26T11:17:23;9.10;;;5.35;;
85892;SDS011;76433;42.122;23.040;2024-02-26T11:19:51;7.88;;;4.70;;
85892;SDS011;76433;42.122;23.040;2024-02-26T11:22:20;8.23;;;4.63;;
85892;SDS011;76433;42.122;23.040;2024-02-26T11:24:47;9.60;;;6.35;;
85892;SDS011;76433;42.122;23.040;2024-02-26T11:27:13;7.50;;;4.88;;
85892;SDS011;76433;42.122;23.040;2024-02-26T11:29:43;7.13;;;5.03;;
85892;SDS011;76433;42.122;23.040;2024-02-26T11:32:12;10.05;;;5.97;;
85892;SDS011;76433;42.122;23.040;2024-02-26T11:34:38;6.88;;;4.90;;
85892;SDS011;76433;42.122;23.040;2024-02-26T11:39:35;7.78;;;4.65;;
85892;SDS011;76433;42.122;23.040;2024-02-26T11:42:05;6.85;;;5.05;;
85892;SDS011;76433;42.122;23.040;2024-02-26T11:44:31;8.77;;;5.00;;
85892;SDS011;76433;42.122;23.040;2024-02-26T11:46:57;10.73;;;4.78;;
85892;SDS011;76433;42.122;23.040;2024-02-26T11:51:58;7.10;;;4.13;;
85892;SDS011;76433;42.122;23.040;2024-02-26T11:54:50;5.13;;;4.00;;
85892;SDS011;76433;42.122;23.040;2024-02-26T11:57:23;7.45;;;4.80;;
85892;SDS011;76433;42.122;23.040;2024-02-26T11:59:53;7.55;;;3.60;;
85892;SDS011;76433;42.122;23.040;2024-02-26T12:07:44;7.28;;;4.13;;
85892;SDS011;76433;42.122;23.040;2024-02-26T12:12:52;5.18;;;3.40;;
85892;SDS011;76433;42.122;23.040;2024-02-26T12:15:19;7.72;;;4.25;;
85892;SDS011;76433;42.122;23.040;2024-02-26T12:17:50;5.40;;;3.70;;
85892;SDS011;76433;42.122;23.040;2024-02-26T12:22:46;8.07;;;4.57;;
85892;SDS011;76433;42.122;23.040;2024-02-26T12:25:13;6.82;;;3.95;;
85892;SDS011;76433;42.122;23.040;2024-02-26T12:27:39;6.38;;;3.80;;
85892;SDS011;76433;42.122;23.040;2024-02-26T12:30:04;6.50;;;4.33;;
85892;SDS011;76433;42.122;23.040;2024-02-26T12:32:32;10.00;;;3.95;;
85892;SDS011;76433;42.122;23.040;2024-02-26T12:34:58;7.38;;;4.20;;
85892;SDS011;76433;42.122;23.040;2024-02-26T12:37:24;7.65;;;4.40;;
85892;SDS011;76433;42.122;23.040;2024-02-26T12:39:50;5.97;;;4.05;;
85892;SDS011;76433;42.122;23.040;2024-02-26T12:42:15;7.70;;;4.43;;
85892;SDS011;76433;42.122;23.040;2024-02-26T12:44:41;7.40;;;4.40;;
85892;SDS011;76433;42.122;23.040;2024-02-26T12:47:06;8.25;;;4.35;;
85892;SDS011;76433;42.122;23.040;2024-02-26T12:49:31;5.15;;;4.05;;
85892;SDS011;76433;42.122;23.040;2024-02-26T12:51:57;5.95;;;4.00;;
85892;SDS011;76433;42.122;23.040;2024-02-26T12:54:30;7.72;;;4.40;;
85892;SDS011;76433;42.122;23.040;2024-02-26T12:56:57;5.15;;;3.90;;
85892;SDS011;76433;42.122;23.040;2024-02-26T12:59:24;5.50;;;3.90;;
85892;SDS011;76433;42.122;23.040;2024-02-26T13:01:49;5.60;;;4.28;;
85892;SDS011;76433;42.122;23.040;2024-02-26T13:04:15;5.85;;;4.10;;
85892;SDS011;76433;42.122;23.040;2024-02-26T13:06:41;9.38;;;4.50;;
85892;SDS011;76433;42.122;23.040;2024-02-26T13:09:07;8.85;;;4.80;;
85892;SDS011;76433;42.122;23.040;2024-02-26T13:11:39;9.82;;;4.82;;
85892;SDS011;76433;42.122;23.040;2024-02-26T13:14:05;8.27;;;4.47;;
85892;SDS011;76433;42.122;23.040;2024-02-26T13:16:31;5.65;;;3.97;;
85892;SDS011;76433;42.122;23.040;2024-02-26T13:19:07;8.10;;;4.88;;
85892;SDS011;76433;42.122;23.040;2024-02-26T13:24:36;5.50;;;4.00;;
85892;SDS011;76433;42.122;23.040;2024-02-26T13:27:02;6.13;;;3.77;;
85892;SDS011;76433;42.122;23.040;2024-02-26T13:29:31;7.40;;;4.20;;
85892;SDS011;76433;42.122;23.040;2024-02-26T13:31:59;5.60;;;3.47;;
85892;SDS011;76433;42.122;23.040;2024-02-26T13:34:28;7.15;;;3.85;;
85892;SDS011;76433;42.122;23.040;2024-02-26T13:36:56;5.80;;;4.13;;
85892;SDS011;76433;42.122;23.040;2024-02-26T13:39:22;7.30;;;4.53;;
85892;SDS011;76433;42.122;23.040;2024-02-26T13:41:49;6.22;;;3.60;;
85892;SDS011;76433;42.122;23.040;2024-02-26T13:44:14;6.32;;;4.28;;
85892;SDS011;76433;42.122;23.040;2024-02-26T13:46:40;9.35;;;3.70;;
85892;SDS011;76433;42.122;23.040;2024-02-26T13:49:08;9.23;;;4.27;;
85892;SDS011;76433;42.122;23.040;2024-02-26T13:51:34;5.88;;;3.78;;
85892;SDS011;76433;42.122;23.040;2024-02-26T13:54:00;7.00;;;4.45;;
85892;SDS011;76433;42.122;23.040;2024-02-26T13:56:26;7.50;;;3.50;;
85892;SDS011;76433;42.122;23.040;2024-02-26T13:58:51;7.67;;;3.60;;
85892;SDS011;76433;42.122;23.040;2024-02-26T14:01:17;6.03;;;4.05;;
85892;SDS011;76433;42.122;23.040;2024-02-26T14:07:11;6.90;;;4.30;;
85892;SDS011;76433;42.122;23.040;2024-02-26T14:09:37;7.00;;;4.07;;
85892;SDS011;76433;42.122;23.040;2024-02-26T14:12:03;9.05;;;3.83;;
85892;SDS011;76433;42.122;23.040;2024-02-26T14:14:28;4.13;;;3.30;;
85892;SDS011;76433;42.122;23.040;2024-02-26T14:16:54;5.63;;;4.05;;
85892;SDS011;76433;42.122;23.040;2024-02-26T14:19:19;7.50;;;3.75;;
85892;SDS011;76433;42.122;23.040;2024-02-26T14:25:06;7.47;;;4.18;;
85892;SDS011;76433;42.122;23.040;2024-02-26T14:27:49;6.47;;;4.50;;
85892;SDS011;76433;42.122;23.040;2024-02-26T14:30:16;6.47;;;3.40;;
85892;SDS011;76433;42.122;23.040;2024-02-26T14:32:42;6.53;;;4.15;;
85892;SDS011;76433;42.122;23.040;2024-02-26T14:35:07;7.18;;;3.60;;
85892;SDS011;76433;42.122;23.040;2024-02-26T14:37:34;5.88;;;3.80;;
85892;SDS011;76433;42.122;23.040;2024-02-26T14:40:00;6.53;;;3.70;;
85892;SDS011;76433;42.122;23.040;2024-02-26T14:42:27;4.85;;;2.97;;
85892;SDS011;76433;42.122;23.040;2024-02-26T14:44:53;5.57;;;4.03;;
85892;SDS011;76433;42.122;23.040;2024-02-26T14:47:19;6.77;;;4.13;;
85892;SDS011;76433;42.122;23.040;2024-02-26T14:49:44;6.13;;;3.67;;
85892;SDS011;76433;42.122;23.040;2024-02-26T14:52:12;6.25;;;3.47;;
85892;SDS011;76433;42.122;23.040;2024-02-26T14:54:38;6.18;;;3.45;;
85892;SDS011;76433;42.122;23.040;2024-02-26T14:57:04;6.95;;;4.07;;
85892;SDS011;76433;42.122;23.040;2024-02-26T14:59:30;8.00;;;4.10;;
85892;SDS011;76433;42.122;23.040;2024-02-26T15:01:56;7.30;;;4.10;;
85892;SDS011;76433;42.122;23.040;2024-02-26T15:04:22;7.07;;;3.50;;
85892;SDS011;76433;42.122;23.040;2024-02-26T15:06:47;5.30;;;4.00;;
85892;SDS011;76433;42.122;23.040;2024-02-26T15:09:13;5.88;;;3.53;;
85892;SDS011;76433;42.122;23.040;2024-02-26T15:11:38;5.72;;;3.72;;
85892;SDS011;76433;42.122;23.040;2024-02-26T15:14:04;6.53;;;4.20;;
85892;SDS011;76433;42.122;23.040;2024-02-26T15:16:30;6.95;;;4.13;;
85892;SDS011;76433;42.122;23.040;2024-02-26T15:18:55;6.85;;;4.60;;
85892;SDS011;76433;42.122;23.040;2024-02-26T15:21:21;8.18;;;3.90;;
85892;SDS011;76433;42.122;23.040;2024-02-26T15:23:46;8.40;;;4.53;;
85892;SDS011;76433;42.122;23.040;2024-02-26T15:26:11;6.28;;;3.60;;
85892;SDS011;76433;42.122;23.040;2024-02-26T15:28:37;8.38;;;4.35;;
85892;SDS011;76433;42.122;23.040;2024-02-26T15:31:03;5.82;;;4.32;;
85892;SDS011;76433;42.122;23.040;2024-02-26T15:33:28;5.90;;;3.88;;
85892;SDS011;76433;42.122;23.040;2024-02-26T15:35:54;10.27;;;3.93;;
85892;SDS011;76433;42.122;23.040;2024-02-26T15:38:19;9.57;;;4.03;;
85892;SDS011;76433;42.122;23.040;2024-02-26T15:40:44;6.23;;;3.53;;
85892;SDS011;76433;42.122;23.040;2024-02-26T15:43:12;26.40;;;4.93;;
85892;SDS011;76433;42.122;23.040;2024-02-26T15:45:38;7.43;;;4.00;;
85892;SDS011;76433;42.122;23.040;2024-02-26T15:48:04;6.25;;;3.40;;
85892;SDS011;76433;42.122;23.040;2024-02-26T15:50:30;9.20;;;4.57;;
85892;SDS011;76433;42.122;23.040;2024-02-26T15:52:55;8.57;;;4.47;;
85892;SDS011;76433;42.122;23.040;2024-02-26T15:55:23;9.88;;;5.40;;
85892;SDS011;76433;42.122;23.040;2024-02-26T15:57:49;6.43;;;4.18;;
85892;SDS011;76433;42.122;23.040;2024-02-26T16:00:14;10.77;;;4.13;;
85892;SDS011;76433;42.122;23.040;2024-02-26T16:02:40;6.18;;;4.10;;
85892;SDS011;76433;42.122;23.040;2024-02-26T16:05:06;6.82;;;5.13;;
85892;SDS011;76433;42.122;23.040;2024-02-26T16:07:38;7.63;;;4.28;;
85892;SDS011;76433;42.122;23.040;2024-02-26T16:10:08;12.90;;;4.05;;
85892;SDS011;76433;42.122;23.040;2024-02-26T16:12:41;7.53;;;3.95;;
85892;SDS011;76433;42.122;23.040;2024-02-26T16:15:09;6.85;;;3.83;;
85892;SDS011;76433;42.122;23.040;2024-02-26T16:17:36;6.47;;;4.18;;
85892;SDS011;76433;42.122;23.040;2024-02-26T16:20:11;9.68;;;5.25;;
85892;SDS011;76433;42.122;23.040;2024-02-26T16:25:59;16.48;;;8.85;;
85892;SDS011;76433;42.122;23.040;2024-02-26T16:31:46;13.10;;;7.10;;
85892;SDS011;76433;42.122;23.040;2024-02-26T16:34:11;12.65;;;7.50;;
85892;SDS011;76433;42.122;23.040;2024-02-26T16:36:37;17.20;;;9.80;;
85892;SDS011;76433;42.122;23.040;2024-02-26T16:39:02;28.10;;;15.33;;
85892;SDS011;76433;42.122;23.040;2024-02-26T16:41:34;22.35;;;13.00;;
85892;SDS011;76433;42.122;23.040;2024-02-26T16:43:59;19.30;;;12.88;;
85892;SDS011;76433;42.122;23.040;2024-02-26T16:46:25;23.60;;;13.35;;
85892;SDS011;76433;42.122;23.040;2024-02-26T16:55:16;20.80;;;11.18;;
85892;SDS011;76433;42.122;23.040;2024-02-26T16:57:42;31.40;;;14.38;;
85892;SDS011;76433;42.122;23.040;2024-02-26T17:00:07;25.70;;;13.65;;
85892;SDS011;76433;42.122;23.040;2024-02-26T17:02:34;25.35;;;14.32;;
85892;SDS011;76433;42.122;23.040;2024-02-26T17:05:00;21.13;;;10.40;;
85892;SDS011;76433;42.122;23.040;2024-02-26T17:27:16;15.98;;;8.63;;
85892;SDS011;76433;42.122;23.040;2024-02-26T17:33:03;16.27;;;8.65;;
85892;SDS011;76433;42.122;23.040;2024-02-26T17:35:29;13.52;;;7.93;;
85892;SDS011;76433;42.122;23.040;2024-02-26T17:37:54;10.73;;;6.93;;
85892;SDS011;76433;42.122;23.040;2024-02-26T17:40:22;12.05;;;7.68;;
85892;SDS011;76433;42.122;23.040;2024-02-26T17:42:47;36.17;;;15.50;;
85892;SDS011;76433;42.122;23.040;2024-02-26T17:45:12;18.50;;;10.63;;